Terminal Aerodrome Forecast
Issued by NWS Cleveland, OH

Home | Current Version | Previous Version | Graphics & Text | Print | Product List | Glossary On
Versions: 1 2 3 4 5 6 7 8 9 10 11 12 13 14 15 16 17 18 19 20 21 22 23
604
FTUS41 KCLE 251121
TAFTOL
TAF
KTOL 251121Z 2512/2612 10005KT P6SM OVC050
     FM251500 07008KT P6SM VCSH SCT015 OVC035
      TEMPO 2515/2518 5SM -SHRA BR OVC015
     FM251800 06008KT 4SM BR VCSH OVC015
     FM252200 06008KT 3SM HZ VCSH OVC008
      TEMPO 2522/2602 1SM BR OVC006
     FM260200 06006KT 2SM -DZ BR OVC006=

USA.gov is the U.S. government's official web portal to all federal, state and local government web resources and services.